Time;durP1;ratioP1;P1;durP2;ratioP2;P2;SDS_P1;SDS_P2;PMS_P1;PMS_P2;Temp;Humidity;BMP_temperature;BMP_pressure;BME280_temperature;BME280_humidity;BME280_pressure;Samples;Min_cycle;Max_cycle;Signal;HPM_P1;HPM_P2
2023/04/28 00:01:31;;;;;;;4.90;1.92;;;7.50;99.90;;;;;;5088709;28;20059;-76
2023/04/28 00:03:57;;;;;;;5.65;2.33;;;7.50;99.90;;;;;;5106263;27;20048;-76
2023/04/28 00:06:23;;;;;;;4.47;1.67;;;7.50;99.90;;;;;;5091775;28;20032;-76
2023/04/28 00:08:49;;;;;;;6.53;2.50;;;7.40;99.90;;;;;;5125267;27;20024;-76
2023/04/28 00:11:14;;;;;;;6.45;2.67;;;7.40;99.90;;;;;;5090254;28;20027;-75
2023/04/28 00:13:40;;;;;;;6.32;2.17;;;7.40;99.90;;;;;;5088156;28;20570;-76
2023/04/28 00:16:06;;;;;;;6.90;2.30;;;7.40;99.90;;;;;;5087737;28;20159;-76
2023/04/28 00:18:32;;;;;;;4.70;2.08;;;7.40;99.90;;;;;;5087881;28;20041;-76
2023/04/28 00:20:58;;;;;;;4.72;2.00;;;7.40;99.90;;;;;;5108897;27;20039;-76
2023/04/28 00:23:24;;;;;;;6.72;2.20;;;7.30;99.90;;;;;;5089834;28;20559;-76
2023/04/28 00:25:51;;;;;;;6.57;2.50;;;7.30;99.90;;;;;;5088188;28;20134;-76
2023/04/28 00:28:16;;;;;;;3.42;1.98;;;7.30;99.90;;;;;;5122678;27;20039;-76
2023/04/28 00:30:42;;;;;;;6.47;2.42;;;7.30;99.90;;;;;;5125377;27;20405;-76
2023/04/28 00:33:08;;;;;;;4.03;2.05;;;7.30;99.90;;;;;;5072686;28;20572;-76
2023/04/28 00:35:33;;;;;;;9.25;2.55;;;7.30;99.90;;;;;;5089807;27;20130;-76
2023/04/28 00:37:59;;;;;;;4.05;2.00;;;7.30;99.90;;;;;;5105467;27;21630;-76
2023/04/28 00:40:32;;;;;;;6.65;2.78;;;7.30;99.90;;;;;;5072774;28;20039;-76
2023/04/28 00:42:58;;;;;;;6.25;2.40;;;7.30;99.90;;;;;;5086438;28;20089;-76
2023/04/28 00:45:23;;;;;;;6.47;2.35;;;7.30;99.90;;;;;;5087850;28;20507;-76
2023/04/28 00:47:49;;;;;;;12.18;3.15;;;7.30;99.90;;;;;;5078495;28;20028;-76
2023/04/28 00:50:16;;;;;;;6.00;2.53;;;7.30;99.90;;;;;;5091372;28;20062;-76
2023/04/28 00:52:42;;;;;;;5.68;2.30;;;7.30;99.90;;;;;;5070929;28;20048;-76
2023/04/28 00:55:08;;;;;;;5.15;2.15;;;7.30;99.90;;;;;;5070778;28;20533;-76
2023/04/28 00:57:35;;;;;;;6.45;2.90;;;7.30;99.90;;;;;;5086991;28;20047;-76
2023/04/28 01:00:03;;;;;;;5.88;2.10;;;7.30;99.90;;;;;;5104747;28;20516;-76
2023/04/28 01:02:29;;;;;;;4.80;2.55;;;7.30;99.90;;;;;;5073772;28;20040;-76
2023/04/28 01:04:56;;;;;;;5.53;2.28;;;7.20;99.90;;;;;;5101861;28;20114;-76
2023/04/28 01:07:21;;;;;;;3.88;1.95;;;7.20;99.90;;;;;;5087833;28;20181;-76
2023/04/28 01:09:47;;;;;;;8.20;2.72;;;7.20;99.90;;;;;;5070114;28;20553;-76
2023/04/28 01:12:13;;;;;;;5.68;2.50;;;7.20;99.90;;;;;;5070488;28;20036;-76
2023/04/28 01:14:39;;;;;;;4.63;2.20;;;7.20;99.90;;;;;;5096414;28;20027;-76
2023/04/28 01:17:05;;;;;;;5.22;2.55;;;7.20;99.90;;;;;;5076639;28;20128;-76
2023/04/28 01:19:30;;;;;;;6.57;2.22;;;7.20;99.90;;;;;;5103904;28;20417;-76
2023/04/28 01:21:56;;;;;;;5.72;2.63;;;7.30;99.90;;;;;;5141420;27;20051;-76
2023/04/28 01:24:22;;;;;;;6.63;2.85;;;7.20;99.90;;;;;;5090802;28;20561;-76
2023/04/28 01:26:47;;;;;;;5.25;2.17;;;7.20;99.90;;;;;;5088957;28;20124;-76
2023/04/28 01:29:13;;;;;;;7.03;2.55;;;7.20;99.90;;;;;;5096524;28;20370;-76
2023/04/28 01:31:39;;;;;;;7.75;2.58;;;7.20;99.90;;;;;;5078998;28;20488;-76
2023/04/28 01:34:05;;;;;;;6.07;2.35;;;7.20;99.90;;;;;;5095766;28;20044;-76
2023/04/28 01:36:31;;;;;;;6.35;2.67;;;7.20;99.90;;;;;;5125688;27;20043;-76
2023/04/28 01:38:57;;;;;;;6.25;2.88;;;7.20;99.90;;;;;;5073317;28;20043;-76
2023/04/28 01:41:23;;;;;;;7.80;2.97;;;7.20;99.90;;;;;;5130539;27;20828;-76
2023/04/28 01:43:48;;;;;;;6.20;2.80;;;7.20;99.90;;;;;;5142851;27;20504;-76
2023/04/28 01:46:14;;;;;;;7.40;3.10;;;7.20;99.90;;;;;;5142359;27;20081;-76
2023/04/28 01:48:40;;;;;;;7.60;3.35;;;7.20;99.90;;;;;;5143977;27;20031;-76
2023/04/28 01:51:05;;;;;;;7.13;3.53;;;7.20;99.90;;;;;;5107244;28;20036;-76
2023/04/28 01:53:31;;;;;;;8.32;3.50;;;7.20;99.90;;;;;;5146107;27;20031;-76
2023/04/28 01:55:57;;;;;;;6.35;3.42;;;7.20;99.90;;;;;;5110434;28;20453;-76
2023/04/28 01:58:23;;;;;;;7.32;3.28;;;7.20;99.90;;;;;;5089639;28;20042;-76
2023/04/28 02:00:48;;;;;;;6.07;2.75;;;7.20;99.90;;;;;;5105471;27;20040;-76
2023/04/28 02:03:14;;;;;;;9.07;3.30;;;7.20;99.90;;;;;;5089877;28;20055;-76
2023/04/28 02:05:40;;;;;;;9.45;3.47;;;7.20;99.90;;;;;;5101786;28;20031;-76
2023/04/28 02:08:06;;;;;;;7.25;3.55;;;7.20;99.90;;;;;;5099525;28;20035;-76
2023/04/28 02:10:31;;;;;;;13.05;3.70;;;7.20;99.90;;;;;;5137874;27;20122;-76
2023/04/28 02:12:57;;;;;;;8.05;3.13;;;7.10;99.90;;;;;;5123862;27;20039;-76
2023/04/28 02:15:22;;;;;;;8.63;3.30;;;7.10;99.90;;;;;;5080497;28;20082;-76
2023/04/28 02:17:48;;;;;;;9.02;3.67;;;7.10;99.90;;;;;;5093284;28;20389;-76
2023/04/28 02:20:14;;;;;;;9.45;3.63;;;7.10;99.90;;;;;;5119283;27;20083;-76
2023/04/28 02:22:40;;;;;;;6.43;2.85;;;7.10;99.90;;;;;;5136873;27;20039;-76
2023/04/28 02:25:06;;;;;;;6.63;3.33;;;7.10;99.90;;;;;;5125518;27;20405;-76
2023/04/28 02:27:35;;;;;;;6.72;2.78;;;7.10;99.90;;;;;;5106241;28;20067;-76
2023/04/28 02:30:01;;;;;;;9.65;3.97;;;7.10;99.90;;;;;;5111926;27;20035;-76
2023/04/28 02:32:27;;;;;;;7.38;2.90;;;7.10;99.90;;;;;;5073454;28;20122;-76
2023/04/28 02:34:55;;;;;;;6.45;2.90;;;7.10;99.90;;;;;;5097509;28;20457;-76
2023/04/28 02:37:21;;;;;;;6.32;3.03;;;7.10;99.90;;;;;;5098280;28;20032;-76
2023/04/28 02:39:47;;;;;;;7.35;2.90;;;7.10;99.90;;;;;;5081205;28;20035;-76
2023/04/28 02:42:13;;;;;;;6.43;3.40;;;7.10;99.90;;;;;;5090061;28;20032;-76
2023/04/28 02:44:38;;;;;;;8.70;3.03;;;7.00;99.90;;;;;;5106168;27;20509;-76
2023/04/28 02:47:04;;;;;;;6.35;3.17;;;7.10;99.90;;;;;;5106780;28;20396;-76
2023/04/28 02:49:30;;;;;;;9.10;3.33;;;7.10;99.90;;;;;;5093591;28;20392;-76
2023/04/28 02:51:55;;;;;;;8.00;3.17;;;7.00;99.90;;;;;;5144321;27;20075;-76
2023/04/28 02:54:26;;;;;;;7.45;2.75;;;7.00;99.90;;;;;;5102038;28;20069;-76
2023/04/28 02:56:55;;;;;;;8.15;3.35;;;7.00;99.90;;;;;;5126239;27;20477;-76
2023/04/28 02:59:22;;;;;;;7.97;3.50;;;7.00;99.90;;;;;;5083682;28;20038;-76
2023/04/28 03:01:48;;;;;;;9.98;3.20;;;7.00;99.90;;;;;;5091109;28;20043;-76
2023/04/28 03:04:14;;;;;;;10.20;3.60;;;7.00;99.90;;;;;;5109388;28;20482;-76
2023/04/28 03:06:40;;;;;;;9.35;3.83;;;6.90;99.90;;;;;;5093294;28;20104;-76
2023/04/28 03:09:06;;;;;;;9.20;3.65;;;6.90;99.90;;;;;;5093640;28;20035;-76
2023/04/28 03:11:32;;;;;;;9.32;3.95;;;6.90;99.90;;;;;;5096731;27;20039;-76
2023/04/28 03:13:58;;;;;;;9.98;3.70;;;6.90;99.90;;;;;;5106024;27;20385;-76
2023/04/28 03:16:23;;;;;;;10.40;3.47;;;6.90;99.90;;;;;;5073186;28;20036;-76
2023/04/28 03:18:49;;;;;;;10.15;3.65;;;6.90;99.90;;;;;;5089468;28;20063;-76
2023/04/28 03:21:15;;;;;;;7.80;3.72;;;6.90;99.90;;;;;;5095957;28;20563;-76
2023/04/28 03:23:40;;;;;;;9.57;3.65;;;6.90;99.90;;;;;;5109061;28;20508;-76
2023/04/28 03:26:06;;;;;;;8.60;3.70;;;6.90;99.90;;;;;;5100803;28;20428;-76
2023/04/28 03:28:31;;;;;;;8.70;3.63;;;6.90;99.90;;;;;;5144329;27;20059;-76
2023/04/28 03:30:57;;;;;;;10.93;3.95;;;6.90;99.90;;;;;;5101820;28;20485;-76
2023/04/28 03:33:23;;;;;;;10.45;4.10;;;6.90;99.90;;;;;;5103641;28;20161;-76
2023/04/28 03:35:48;;;;;;;11.07;3.95;;;6.90;99.90;;;;;;5141787;27;20047;-76
2023/04/28 03:38:14;;;;;;;8.18;3.45;;;6.90;99.90;;;;;;5089068;28;20047;-76
2023/04/28 03:40:40;;;;;;;8.13;4.18;;;6.90;99.90;;;;;;5101710;28;20031;-76
2023/04/28 03:43:06;;;;;;;10.05;3.67;;;6.90;99.90;;;;;;5141844;27;20115;-76
2023/04/28 03:45:31;;;;;;;10.10;4.03;;;6.90;99.90;;;;;;5108177;27;20078;-76
2023/04/28 03:47:57;;;;;;;10.57;4.20;;;6.90;99.90;;;;;;5073946;28;20067;-76
2023/04/28 03:50:23;;;;;;;8.25;3.45;;;6.80;99.90;;;;;;5121821;27;20079;-76
2023/04/28 03:52:48;;;;;;;11.13;4.47;;;6.90;99.90;;;;;;5103044;28;20044;-76
2023/04/28 03:55:14;;;;;;;11.50;3.50;;;6.90;99.90;;;;;;5093289;28;20079;-76
2023/04/28 03:57:39;;;;;;;9.32;3.95;;;6.90;99.90;;;;;;5070220;28;20055;-76
2023/04/28 04:00:05;;;;;;;10.05;4.15;;;6.90;99.90;;;;;;5093735;28;20039;-76
2023/04/28 04:02:31;;;;;;;11.15;4.05;;;6.90;99.90;;;;;;5090065;28;20093;-76
2023/04/28 04:04:56;;;;;;;10.82;3.55;;;6.90;99.90;;;;;;5097938;28;20062;-76
2023/04/28 04:07:22;;;;;;;11.63;4.47;;;6.80;99.90;;;;;;5091604;28;20032;-76
2023/04/28 04:09:48;;;;;;;9.52;3.60;;;6.90;99.90;;;;;;5136873;27;20043;-76
2023/04/28 04:12:13;;;;;;;9.52;3.65;;;6.90;99.90;;;;;;5104238;28;20031;-76
2023/04/28 04:14:39;;;;;;;9.07;3.55;;;6.90;99.90;;;;;;5131231;27;20068;-76
2023/04/28 04:17:05;;;;;;;8.65;3.83;;;6.90;99.90;;;;;;5107254;28;20043;-76
2023/04/28 04:19:31;;;;;;;9.50;3.75;;;6.90;99.90;;;;;;5141661;27;20157;-76
2023/04/28 04:21:56;;;;;;;8.32;3.55;;;6.90;99.90;;;;;;5107618;28;20071;-76
2023/04/28 04:24:22;;;;;;;9.32;3.90;;;6.90;99.90;;;;;;5073159;28;20119;-76
2023/04/28 04:26:47;;;;;;;12.77;4.22;;;6.90;99.90;;;;;;5106375;28;20024;-77
2023/04/28 04:29:13;;;;;;;9.63;4.47;;;6.90;99.90;;;;;;5136057;27;20039;-76
2023/04/28 04:31:39;;;;;;;8.68;4.05;;;6.90;99.90;;;;;;5075539;28;20432;-77
2023/04/28 04:34:05;;;;;;;9.70;4.13;;;6.80;99.90;;;;;;5088036;28;20132;-76
2023/04/28 04:36:31;;;;;;;12.52;3.90;;;6.80;99.90;;;;;;5075764;28;20072;-76
2023/04/28 04:38:57;;;;;;;11.52;3.60;;;6.90;99.90;;;;;;5086126;28;20035;-77
2023/04/28 04:41:25;;;;;;;12.52;4.53;;;6.90;99.90;;;;;;5112725;27;20044;-76
2023/04/28 04:43:51;;;;;;;10.05;4.00;;;6.90;99.90;;;;;;5113631;27;20118;-76
2023/04/28 04:46:17;;;;;;;10.48;3.92;;;6.90;99.90;;;;;;5102545;28;20582;-76
2023/04/28 04:48:43;;;;;;;9.85;4.10;;;6.90;99.90;;;;;;5106098;28;20504;-76
2023/04/28 04:51:08;;;;;;;10.90;4.10;;;6.90;99.90;;;;;;5106435;28;20110;-76
2023/04/28 04:53:34;;;;;;;9.48;3.55;;;6.90;99.90;;;;;;5084046;28;20169;-77
2023/04/28 04:56:00;;;;;;;9.57;4.35;;;6.90;99.90;;;;;;5121215;27;20046;-76
2023/04/28 04:58:26;;;;;;;9.65;4.03;;;6.90;99.90;;;;;;5098380;28;20040;-76
2023/04/28 05:00:51;;;;;;;9.63;3.92;;;6.90;99.90;;;;;;5070813;28;20046;-76
2023/04/28 05:03:17;;;;;;;12.82;3.88;;;6.90;99.90;;;;;;5103342;28;20075;-76
2023/04/28 05:05:44;;;;;;;8.20;3.70;;;6.80;99.90;;;;;;5108604;28;20188;-76
2023/04/28 05:08:10;;;;;;;8.63;4.10;;;6.90;99.90;;;;;;5102058;28;20063;-76
2023/04/28 05:10:36;;;;;;;6.72;3.30;;;6.90;99.90;;;;;;5070328;28;20112;-76
2023/04/28 05:13:02;;;;;;;9.50;3.75;;;6.90;99.90;;;;;;5116623;28;20085;-78
2023/04/28 05:15:27;;;;;;;10.75;3.97;;;6.90;99.90;;;;;;5126313;27;20047;-77
2023/04/28 05:17:53;;;;;;;9.35;3.53;;;6.90;99.90;;;;;;5101080;28;20482;-77
2023/04/28 05:20:19;;;;;;;14.02;4.22;;;6.90;99.90;;;;;;5145446;27;20177;-77
2023/04/28 05:22:45;;;;;;;11.55;3.92;;;6.90;99.90;;;;;;5108001;28;20500;-77
2023/04/28 05:25:10;;;;;;;11.15;4.25;;;6.90;99.90;;;;;;5121887;27;20028;-77
2023/04/28 05:27:38;;;;;;;8.52;3.85;;;6.90;99.90;;;;;;5094314;28;20419;-77
2023/04/28 05:30:05;;;;;;;11.13;4.13;;;6.90;99.90;;;;;;5091532;28;20064;-77
2023/04/28 05:32:30;;;;;;;11.52;3.78;;;7.00;99.90;;;;;;5109030;28;20492;-77
2023/04/28 05:34:56;;;;;;;8.27;3.75;;;7.00;99.90;;;;;;5089678;28;20042;-77
2023/04/28 05:37:21;;;;;;;9.85;4.32;;;7.00;99.90;;;;;;5110327;28;20036;-77
2023/04/28 05:39:47;;;;;;;9.10;3.30;;;7.00;99.90;;;;;;5079062;28;20063;-77
2023/04/28 05:42:13;;;;;;;8.68;3.65;;;7.10;99.90;;;;;;5078790;28;20118;-77
2023/04/28 05:44:38;;;;;;;9.80;3.85;;;7.00;99.90;;;;;;5110285;28;20077;-77
2023/04/28 05:47:04;;;;;;;9.90;3.67;;;7.10;99.90;;;;;;5144494;27;20043;-77
2023/04/28 05:49:30;;;;;;;6.00;3.28;;;7.10;99.90;;;;;;5093393;28;20047;-77
2023/04/28 05:51:55;;;;;;;11.75;4.20;;;7.10;99.90;;;;;;5090950;28;20539;-77
2023/04/28 05:54:21;;;;;;;8.85;3.17;;;7.10;99.90;;;;;;5090765;28;20032;-77
2023/04/28 05:56:46;;;;;;;10.38;4.03;;;7.20;99.90;;;;;;5129016;27;20520;-77
2023/04/28 05:59:12;;;;;;;8.00;3.70;;;7.20;99.90;;;;;;5139307;27;20366;-77
2023/04/28 06:01:37;;;;;;;8.63;3.90;;;7.20;99.90;;;;;;5105335;28;20092;-77
2023/04/28 06:04:03;;;;;;;8.98;3.28;;;7.20;99.90;;;;;;5141422;27;20043;-77
2023/04/28 06:06:29;;;;;;;11.88;4.07;;;7.20;99.90;;;;;;5101345;28;20028;-77
2023/04/28 06:08:55;;;;;;;6.60;3.13;;;7.20;99.90;;;;;;5074536;28;20040;-77
2023/04/28 06:11:21;;;;;;;8.35;3.25;;;7.20;99.90;;;;;;5081592;28;20114;-77
2023/04/28 06:13:48;;;;;;;12.18;4.28;;;7.20;99.90;;;;;;5075333;28;20035;-77
2023/04/28 06:16:14;;;;;;;10.85;3.78;;;7.30;99.90;;;;;;5080484;28;20496;-77
2023/04/28 06:18:40;;;;;;;10.48;4.28;;;7.30;99.90;;;;;;5101977;28;20052;-77
2023/04/28 06:21:05;;;;;;;8.82;3.80;;;7.30;99.90;;;;;;5097096;28;20039;-78
2023/04/28 06:23:31;;;;;;;9.60;4.35;;;7.30;99.90;;;;;;5074349;28;20028;-77
2023/04/28 06:25:57;;;;;;;8.15;3.63;;;7.30;99.90;;;;;;5105193;28;20036;-76
2023/04/28 06:28:22;;;;;;;9.23;3.72;;;7.30;99.90;;;;;;5098193;28;20032;-77
2023/04/28 06:30:48;;;;;;;9.02;3.63;;;7.30;99.90;;;;;;5127925;27;20035;-77
2023/04/28 06:33:13;;;;;;;8.93;3.88;;;7.30;99.90;;;;;;5075966;28;20036;-77
2023/04/28 06:35:39;;;;;;;6.90;3.60;;;7.30;99.90;;;;;;5090282;28;20040;-76
2023/04/28 06:38:06;;;;;;;8.73;3.67;;;7.30;99.90;;;;;;5097958;28;20040;-77
2023/04/28 06:40:31;;;;;;;10.70;3.67;;;7.30;99.90;;;;;;5092297;27;20397;-77
2023/04/28 06:42:57;;;;;;;9.82;3.47;;;7.40;99.90;;;;;;5105674;27;20044;-77
2023/04/28 06:45:22;;;;;;;9.82;3.75;;;7.30;99.90;;;;;;5124353;27;20674;-77
2023/04/28 06:47:48;;;;;;;9.00;3.28;;;7.30;99.90;;;;;;5089772;27;20036;-77
2023/04/28 06:50:14;;;;;;;8.93;3.85;;;7.40;99.90;;;;;;5093026;27;20040;-77
2023/04/28 06:52:39;;;;;;;11.20;3.65;;;7.40;99.90;;;;;;5127876;27;20051;-77
2023/04/28 06:55:08;;;;;;;10.10;3.30;;;7.40;99.90;;;;;;5097863;27;20050;-77
2023/04/28 06:57:34;;;;;;;6.95;3.40;;;7.50;99.90;;;;;;5091720;27;20027;-77
2023/04/28 07:00:01;;;;;;;7.95;3.20;;;7.50;99.90;;;;;;5074945;28;20087;-77
2023/04/28 07:02:26;;;;;;;9.00;3.38;;;7.50;99.90;;;;;;5109408;27;20031;-77
2023/04/28 07:04:52;;;;;;;7.18;3.33;;;7.50;99.90;;;;;;5089435;27;20654;-77
2023/04/28 07:07:17;;;;;;;7.82;3.83;;;7.50;99.90;;;;;;5093255;27;20208;-76
2023/04/28 07:09:43;;;;;;;8.88;3.42;;;7.60;99.90;;;;;;5087516;27;20032;-76
2023/04/28 07:12:09;;;;;;;9.40;3.50;;;7.60;99.90;;;;;;5089924;27;20093;-76
2023/04/28 07:14:34;;;;;;;9.27;3.47;;;7.60;99.90;;;;;;5093370;27;20140;-77
2023/04/28 07:17:00;;;;;;;8.30;3.55;;;7.60;99.90;;;;;;5075522;28;20492;-77
2023/04/28 07:19:25;;;;;;;8.50;3.33;;;7.60;99.90;;;;;;5091886;27;20055;-77
2023/04/28 07:21:51;;;;;;;8.82;3.40;;;7.70;99.90;;;;;;5073887;28;20386;-77
2023/04/28 07:24:17;;;;;;;8.95;3.50;;;7.70;99.90;;;;;;5070969;28;20055;-77
2023/04/28 07:26:42;;;;;;;10.77;3.65;;;7.80;99.90;;;;;;5092336;27;20039;-77
2023/04/28 07:29:09;;;;;;;11.13;3.78;;;7.80;99.90;;;;;;5071296;28;20495;-77
2023/04/28 07:31:34;;;;;;;8.05;3.63;;;7.80;99.90;;;;;;5072745;28;20134;-77
2023/04/28 07:34:00;;;;;;;9.98;3.42;;;7.80;99.90;;;;;;5074107;28;20139;-77
2023/04/28 07:36:26;;;;;;;9.23;3.65;;;7.90;99.90;;;;;;5108279;27;20044;-76
2023/04/28 07:38:51;;;;;;;8.25;3.67;;;7.90;99.90;;;;;;5078553;28;20040;-76
2023/04/28 07:41:17;;;;;;;6.85;3.20;;;8.00;99.90;;;;;;5096724;28;20553;-76
2023/04/28 07:43:43;;;;;;;6.93;3.03;;;8.00;99.90;;;;;;5102630;27;20035;-76
2023/04/28 07:46:09;;;;;;;10.40;3.55;;;8.00;99.90;;;;;;5143061;27;20057;-76
2023/04/28 07:48:35;;;;;;;9.07;3.20;;;8.10;99.90;;;;;;5121005;27;20515;-76
2023/04/28 07:51:01;;;;;;;7.43;3.72;;;8.10;99.90;;;;;;5082781;28;20564;-76
2023/04/28 07:53:26;;;;;;;10.40;4.40;;;8.10;99.90;;;;;;5108581;27;20061;-77
2023/04/28 07:55:53;;;;;;;7.05;3.65;;;8.10;99.90;;;;;;5093203;28;20032;-76
2023/04/28 07:58:19;;;;;;;7.13;3.45;;;8.10;99.90;;;;;;5090228;28;20077;-76
2023/04/28 08:00:45;;;;;;;9.32;3.55;;;8.20;99.90;;;;;;5097543;27;20036;-77
2023/04/28 08:03:10;;;;;;;7.00;3.17;;;8.20;99.90;;;;;;5094982;28;20139;-77
2023/04/28 08:05:37;;;;;;;7.68;3.50;;;8.30;99.90;;;;;;5100992;28;20027;-77
2023/04/28 08:08:03;;;;;;;8.20;3.65;;;8.30;99.90;;;;;;5104419;27;20131;-77
2023/04/28 08:10:29;;;;;;;7.15;3.60;;;8.40;99.90;;;;;;5072225;27;20125;-77
2023/04/28 08:12:54;;;;;;;11.77;3.50;;;8.50;99.90;;;;;;5091069;27;20035;-77
2023/04/28 08:15:20;;;;;;;9.23;3.53;;;8.50;99.90;;;;;;5093405;28;20107;-77
2023/04/28 08:17:46;;;;;;;7.82;3.88;;;8.50;99.90;;;;;;5092116;27;20634;-76
2023/04/28 08:20:14;;;;;;;8.02;3.85;;;8.60;99.90;;;;;;5105920;27;20047;-77
2023/04/28 08:22:40;;;;;;;8.00;3.25;;;8.80;99.90;;;;;;5123717;27;20032;-76
2023/04/28 08:25:07;;;;;;;6.97;3.60;;;8.70;99.90;;;;;;5108126;27;20060;-77
2023/04/28 08:27:33;;;;;;;8.50;3.05;;;8.80;99.90;;;;;;5082540;28;20035;-77
2023/04/28 08:29:59;;;;;;;6.95;3.03;;;8.90;99.90;;;;;;5094208;28;20027;-75
2023/04/28 08:32:24;;;;;;;11.40;3.72;;;8.90;99.90;;;;;;5102341;27;20065;-76
2023/04/28 08:34:50;;;;;;;9.23;3.35;;;8.90;99.90;;;;;;5085484;28;20493;-76
2023/04/28 08:37:16;;;;;;;7.53;3.33;;;9.00;99.90;;;;;;5092132;28;20039;-76
2023/04/28 08:39:41;;;;;;;6.78;3.00;;;8.90;99.90;;;;;;5090323;28;20043;-77
2023/04/28 08:42:07;;;;;;;6.63;3.15;;;9.00;99.90;;;;;;5082087;27;20047;-76
2023/04/28 08:44:40;;;;;;;7.68;3.53;;;9.00;99.90;;;;;;5111313;27;20036;-71
2023/04/28 08:47:15;;;;;;;9.05;3.58;;;9.00;99.90;;;;;;5090606;28;21622;-71
2023/04/28 08:49:41;;;;;;;8.40;3.50;;;9.00;99.90;;;;;;5091181;28;20039;-71
2023/04/28 08:52:15;;;;;;;6.82;3.13;;;9.00;99.90;;;;;;5098611;27;20081;-73
2023/04/28 08:54:42;;;;;;;7.47;3.23;;;9.00;99.90;;;;;;5094743;27;20044;-71
2023/04/28 08:57:11;;;;;;;4.63;2.80;;;9.00;99.90;;;;;;5096977;27;20415;-75
2023/04/28 08:59:39;;;;;;;6.65;3.42;;;9.10;99.90;;;;;;5088407;28;20118;-73
2023/04/28 09:02:05;;;;;;;6.97;3.60;;;9.10;99.90;;;;;;5088263;28;20113;-74
2023/04/28 09:04:30;;;;;;;5.68;2.95;;;9.10;99.90;;;;;;5071837;28;20535;-76
2023/04/28 09:06:56;;;;;;;6.90;3.50;;;9.10;99.90;;;;;;5088395;28;20166;-73
2023/04/28 09:09:28;;;;;;;9.48;3.80;;;9.20;99.90;;;;;;5118966;27;20043;-75
2023/04/28 09:12:01;;;;;;;6.72;3.42;;;9.20;99.90;;;;;;5084133;28;20967;-75
2023/04/28 09:14:28;;;;;;;6.07;3.05;;;9.20;99.90;;;;;;5105044;27;20043;-75
2023/04/28 09:16:54;;;;;;;11.27;3.65;;;9.30;99.90;;;;;;5070941;28;20118;-76
2023/04/28 09:19:20;;;;;;;5.97;3.75;;;9.40;99.90;;;;;;5073244;28;20051;-75
2023/04/28 09:21:48;;;;;;;6.95;3.50;;;9.40;99.90;;;;;;5091732;28;20089;-75
2023/04/28 09:24:39;;;;;;;7.30;3.63;;;9.50;99.90;;;;;;5093056;28;20043;-75
2023/04/28 09:27:10;;;;;;;8.77;3.80;;;9.60;99.90;;;;;;5092452;28;20397;-75
2023/04/28 09:29:37;;;;;;;8.13;3.60;;;9.60;99.90;;;;;;5090604;28;20035;-75
2023/04/28 09:32:12;;;;;;;8.43;4.00;;;9.60;99.90;;;;;;5073821;28;20470;-75
2023/04/28 09:34:50;;;;;;;7.07;3.35;;;9.70;99.90;;;;;;5108337;28;20078;-75
2023/04/28 09:37:16;;;;;;;7.63;3.78;;;9.70;99.90;;;;;;5086752;28;20127;-75
2023/04/28 09:39:48;;;;;;;5.47;3.30;;;9.70;99.90;;;;;;5090726;28;20088;-75
2023/04/28 09:42:38;;;;;;;7.30;3.22;;;9.80;99.90;;;;;;5087557;28;20497;-74
2023/04/28 09:45:05;;;;;;;8.20;3.78;;;9.80;99.90;;;;;;5085444;28;20050;-75
2023/04/28 09:47:33;;;;;;;7.50;3.90;;;9.80;99.90;;;;;;5097539;28;20100;-75
2023/04/28 09:50:01;;;;;;;10.05;4.10;;;9.90;99.90;;;;;;5090765;28;20090;-75
2023/04/28 09:52:27;;;;;;;8.07;3.50;;;10.00;99.90;;;;;;5083701;28;20032;-75
2023/04/28 09:54:55;;;;;;;7.53;3.60;;;10.10;99.90;;;;;;5124682;27;20389;-75
2023/04/28 09:57:21;;;;;;;12.90;3.45;;;10.30;99.90;;;;;;5121456;27;20131;-75
2023/04/28 09:59:49;;;;;;;7.03;3.80;;;10.30;99.90;;;;;;5105274;27;20040;-75
2023/04/28 10:02:16;;;;;;;9.48;4.00;;;10.40;99.90;;;;;;5094784;27;20393;-75
2023/04/28 10:04:46;;;;;;;6.35;3.60;;;10.40;99.90;;;;;;5093173;27;20116;-75
2023/04/28 10:07:13;;;;;;;8.18;3.47;;;10.50;99.90;;;;;;5094431;27;20035;-74
2023/04/28 10:09:42;;;;;;;6.38;3.42;;;10.60;99.90;;;;;;5090742;27;20048;-75
2023/04/28 10:12:09;;;;;;;5.85;3.50;;;10.60;99.90;;;;;;5093699;27;20046;-75
2023/04/28 10:14:36;;;;;;;9.45;3.67;;;10.60;99.90;;;;;;5110949;27;20044;-75
2023/04/28 10:17:04;;;;;;;7.80;4.05;;;10.70;99.90;;;;;;5092214;27;20051;-75
2023/04/28 10:19:29;;;;;;;7.90;3.80;;;10.80;99.90;;;;;;5090864;27;20074;-75
2023/04/28 10:22:23;;;;;;;7.38;4.00;;;10.90;99.90;;;;;;5077802;27;20035;-75
2023/04/28 10:25:16;;;;;;;6.68;4.07;;;11.00;99.90;;;;;;5086841;28;20390;-73
2023/04/28 10:27:46;;;;;;;8.20;3.75;;;11.10;99.90;;;;;;5088673;27;20077;-75
2023/04/28 10:30:13;;;;;;;9.15;4.70;;;11.20;99.90;;;;;;5087835;27;20193;-75
2023/04/28 10:32:39;;;;;;;7.03;3.88;;;11.30;99.90;;;;;;5094969;27;20468;-75
2023/04/28 10:35:20;;;;;;;7.90;3.80;;;11.30;99.90;;;;;;5085328;27;20104;-75
2023/04/28 10:38:07;;;;;;;9.95;4.93;;;11.50;99.90;;;;;;5096133;27;20492;-75
2023/04/28 10:40:40;;;;;;;7.25;3.80;;;11.50;99.90;;;;;;5116140;27;20028;-74
2023/04/28 10:43:08;;;;;;;6.55;3.60;;;11.60;99.90;;;;;;5093404;27;20044;-75
2023/04/28 10:45:52;;;;;;;9.90;4.50;;;11.60;99.90;;;;;;5077543;28;20122;-75
2023/04/28 10:48:18;;;;;;;7.82;3.80;;;11.60;99.90;;;;;;5111032;27;20396;-75
2023/04/28 10:51:06;;;;;;;5.80;3.50;;;11.60;99.90;;;;;;5074175;28;20103;-75
2023/04/28 10:53:44;;;;;;;8.68;3.90;;;11.60;99.90;;;;;;5091849;27;20109;-75
2023/04/28 10:56:17;;;;;;;8.80;4.25;;;11.60;99.90;;;;;;5068091;28;20489;-75
2023/04/28 10:58:47;;;;;;;10.75;4.90;;;11.70;99.90;;;;;;5086979;28;20496;-75
2023/04/28 11:01:25;;;;;;;13.15;5.80;;;11.70;99.90;;;;;;5109768;27;20099;-75
2023/04/28 11:04:10;;;;;;;10.45;4.75;;;11.80;99.90;;;;;;5092743;27;20039;-75
2023/04/28 11:06:38;;;;;;;12.15;6.30;;;11.80;99.90;;;;;;5123983;27;20036;-75
2023/04/28 11:09:16;;;;;;;10.77;4.80;;;11.90;99.90;;;;;;5091875;27;20691;-75
2023/04/28 11:12:00;;;;;;;8.27;4.53;;;12.10;99.90;;;;;;5096573;28;20043;-74
2023/04/28 11:14:32;;;;;;;8.95;4.35;;;12.10;99.90;;;;;;5102421;28;20486;-75
2023/04/28 11:16:59;;;;;;;11.73;5.38;;;12.20;99.90;;;;;;5096383;28;20040;-75
2023/04/28 11:19:33;;;;;;;13.55;5.60;;;12.20;99.90;;;;;;5096995;28;20224;-75
2023/04/28 11:22:03;;;;;;;13.88;6.18;;;12.30;99.90;;;;;;5084660;28;20055;-75
2023/04/28 11:24:30;;;;;;;9.43;4.45;;;12.30;99.90;;;;;;5072073;28;20093;-75
2023/04/28 11:26:57;;;;;;;7.53;4.68;;;12.30;99.90;;;;;;5098711;28;20438;-75
2023/04/28 11:29:34;;;;;;;10.98;5.28;;;12.30;99.90;;;;;;5081809;28;20032;-75
2023/04/28 11:32:00;;;;;;;8.55;4.78;;;12.30;99.90;;;;;;5099205;28;20072;-75
2023/04/28 11:34:26;;;;;;;8.48;4.28;;;12.30;99.90;;;;;;5094051;28;20578;-75
2023/04/28 11:36:52;;;;;;;8.25;4.20;;;12.20;99.90;;;;;;5107045;27;20115;-75
2023/04/28 11:39:27;;;;;;;8.18;4.20;;;12.20;99.90;;;;;;5100496;28;20092;-75
2023/04/28 11:41:53;;;;;;;;;;;12.20;99.90;;;;;;5126256;27;20096;-79
2023/04/28 11:44:20;;;;;;;6.03;3.70;;;12.30;99.90;;;;;;5079220;28;19919;-76
2023/04/28 11:47:01;;;;;;;7.88;3.85;;;12.30;99.90;;;;;;5098308;28;20032;-76
2023/04/28 11:49:43;;;;;;;11.43;4.60;;;12.30;99.90;;;;;;5080403;28;20042;-76
2023/04/28 11:52:09;;;;;;;9.27;4.22;;;12.30;99.90;;;;;;5110242;27;20105;-76
2023/04/28 11:54:36;;;;;;;9.60;4.18;;;12.40;99.90;;;;;;5100732;28;20492;-76
2023/04/28 11:57:03;;;;;;;8.55;3.65;;;12.30;99.90;;;;;;5084154;28;20036;-76
2023/04/28 11:59:35;;;;;;;11.77;4.57;;;12.30;99.90;;;;;;5100987;28;20122;-76
2023/04/28 12:02:03;;;;;;;9.48;4.10;;;12.30;99.90;;;;;;5101989;28;21872;-76
2023/04/28 12:04:31;;;;;;;7.70;4.55;;;12.30;99.90;;;;;;5099371;28;20114;-76
2023/04/28 12:07:04;;;;;;;8.63;4.88;;;12.30;99.90;;;;;;5073739;28;20032;-76
2023/04/28 12:09:31;;;;;;;7.15;4.10;;;12.30;99.90;;;;;;5096110;28;20058;-76
2023/04/28 12:12:01;;;;;;;10.05;4.30;;;12.40;99.90;;;;;;5074237;28;20115;-76
2023/04/28 12:14:28;;;;;;;8.40;3.72;;;12.30;99.90;;;;;;5098777;28;20043;-76
2023/04/28 12:16:53;;;;;;;8.90;4.03;;;12.40;99.90;;;;;;5100949;28;20524;-76
2023/04/28 12:19:20;;;;;;;7.32;4.30;;;12.30;99.90;;;;;;5135721;27;20047;-76
2023/04/28 12:22:06;;;;;;;8.38;4.18;;;12.30;99.90;;;;;;5097550;27;20042;-76
2023/04/28 12:24:34;;;;;;;8.80;4.47;;;12.30;99.90;;;;;;5106224;27;20039;-76
2023/04/28 12:27:24;;;;;;;10.10;4.35;;;12.30;99.90;;;;;;5094877;28;20036;-76
2023/04/28 12:29:50;;;;;;;8.25;4.43;;;12.20;99.90;;;;;;5107549;27;20122;-77
2023/04/28 12:32:16;;;;;;;6.07;3.60;;;12.20;99.90;;;;;;5113863;27;20123;-76
2023/04/28 12:34:44;;;;;;;6.85;3.30;;;12.30;99.90;;;;;;5088563;27;20538;-76
2023/04/28 12:37:11;;;;;;;9.85;4.03;;;12.30;99.90;;;;;;5091409;28;20409;-76
2023/04/28 12:39:39;;;;;;;7.07;3.92;;;12.30;99.90;;;;;;5091480;27;20070;-76
2023/04/28 12:42:05;;;;;;;6.75;3.75;;;12.30;99.90;;;;;;5089624;28;20061;-76
2023/04/28 12:44:39;;;;;;;5.57;2.85;;;12.30;99.90;;;;;;5111708;27;20045;-76
2023/04/28 12:47:07;;;;;;;9.82;4.45;;;12.30;99.90;;;;;;5100594;27;20039;-76
2023/04/28 12:49:34;;;;;;;6.07;3.58;;;12.30;99.90;;;;;;5089393;28;20050;-76
2023/04/28 12:52:00;;;;;;;8.32;3.65;;;12.20;99.90;;;;;;5092334;28;20036;-76
2023/04/28 12:54:25;;;;;;;7.47;4.07;;;12.30;99.90;;;;;;5088809;28;20109;-76